Mc Comb, Pike County, John E Lewis Field Mc Comb US
ICAO: KMCB
IATA: MCB
Category: Medium
Scheduled Services: No

Elevation: 413 ft
TransAlt. 18000 ft.

Airport Communications:
ASOS:119.025
HOUSTON CNTR:133.5
GREENWOOD RDO:122.2
CTAF/UNICOM:123.05

KMCB Zoom In..

If you have problems with the map follow the link
https://www.worldairports.se/pages/airport.php?
ICAO=KMCB

Runways:

(A) RW 15 length 5000 ft width 100 ft
ILS 109.10 / hdg 153

(B) RW 33 length 5000 ft width 100 ft
---- / hdg 333

Location; KMCB
Day. 08 / Time. 11.53 Zulu
* Altimeter: 30.15
* Temperature: 10° c. 50°f.
* Wind from: 350° Speed 03 kn.
Dewpoint: 09° c.
Visibility: 7 Statute Miles.
Clouds: Overcast 1800 ft.

KMCB 081153Z AUTO 35003KT 7SM OVC018 10/09 A3015 RMK AO2 SLP208 T01000089 10100 20094 50000


Wind From 350°
Speed 03 kn.

 
 
jpsmedia worldairports.se 2019   terms of use